Latest Weather Observations for Cape Jaffa

IDS60801

Issued at 8:35 am CST Thursday 31 July 2014 (issued every 30 minutes, with the page automatically refreshed every 10 minutes)

About weather observations | Map of weather stations | Latest weather observations for SA | Other Formats
Station Details ID: 026095 Name: THE LIMESTONE Lat: -36.97 Lon: 139.72 Height: 17.0 m
Data from the previous 72 hours. | See also: Recent months at Cape Jaffa
Date/Time
CST
Temp
°C
App
Temp
°C
Dew
Point
Rel
Hum
%
Delta-T
°C
Wind Press
QNH
hPa
Press
MSL
hPa
Rain
since 9 am
mm
Dir
 
Spd
km/h
Gust
km/h
Spd
kts
Gust
kts
31/08:33am 13.9 4.6 10.7 81 1.7 NNW 50 69 27 37 997.6 - 0.6
31/08:30am 13.9 4.3 10.9 82 1.6 NNW 52 69 28 37 997.8 997.8 0.6
31/08:07am 13.8 4.5 10.6 81 1.7 NNW 50 70 27 38 998.0 - 0.6
31/08:00am 13.6 3.6 10.6 82 1.6 NNW 54 69 29 37 998.1 - 0.6
31/07:38am 13.8 4.6 10.8 82 1.6 NNW 50 70 27 38 998.5 - 0.6
31/07:30am 13.8 4.1 10.6 81 1.7 NNW 52 67 28 36 998.6 998.6 0.6
31/07:00am 13.6 3.6 10.6 82 1.6 NNW 54 78 29 42 999.0 - 0.6
31/06:56am 13.6 3.9 10.6 82 1.6 NNW 52 78 28 42 998.9 - 0.6
31/06:30am 13.4 4.1 10.6 83 1.5 NNW 50 65 27 35 999.1 999.2 0.6
31/06:00am 13.4 4.9 10.8 84 1.4 NNW 46 57 25 31 999.6 999.7 0.6
31/05:30am 13.4 5.3 10.2 81 1.7 NNW 43 65 23 35 1000.2 1000.3 0.6
31/05:09am 13.6 4.3 10.6 82 1.6 NNW 50 69 27 37 1000.5 - 0.6
31/05:00am 13.6 5.1 10.6 82 1.6 NNW 46 61 25 33 1000.4 - 0.6
31/04:41am 13.9 5.4 10.5 80 1.8 NNW 46 67 25 36 1000.7 - 0.6
31/04:30am 13.8 5.3 10.6 81 1.7 NNW 46 59 25 32 1000.9 1001.0 0.6
31/04:06am 13.7 6.5 10.7 82 1.6 NNW 39 59 21 32 1001.2 - 0.6
31/04:00am 13.8 6.7 10.8 82 1.6 NNW 39 56 21 30 1001.5 - 0.6
31/03:30am 13.8 6.6 10.6 81 1.7 NNW 39 52 21 28 1002.2 1002.3 0.6
31/03:00am 14.1 6.5 10.5 79 1.9 NNW 41 56 22 30 1002.8 1002.9 0.6
31/02:30am 13.8 6.2 10.4 80 1.8 NNW 41 56 22 30 1003.2 1003.3 0.6
31/02:00am 13.9 6.3 10.5 80 1.8 NNW 41 54 22 29 1003.7 - 0.6
31/01:33am 14.2 5.9 10.2 77 2.1 NNW 44 65 24 35 1004.0 - 0.6
31/01:30am 14.2 5.9 10.2 77 2.1 NNW 44 63 24 34 1004.0 1004.1 0.6
31/01:00am 14.0 6.0 10.4 79 1.9 NNW 43 57 23 31 1004.7 - 0.6
31/12:30am 14.2 6.2 10.6 79 1.9 NNW 43 57 23 31 1005.0 1005.0 0.6
31/12:00am 14.1 6.5 10.5 79 1.9 NNW 41 54 22 29 1005.6 1005.6 0.6
 
Date/Time
CST
Temp
°C
App
Temp
°C
Dew
Point
Rel
Hum
%
Delta-T
°C
Wind Press
QNH
hPa
Press
MSL
hPa
Rain
since 9 am
mm
Dir
 
Spd
km/h
Gust
km/h
Spd
kts
Gust
kts
30/11:30pm 14.5 6.4 10.7 78 2.0 NNW 44 61 24 33 1006.3 1006.3 0.6
30/11:27pm 14.5 6.6 10.9 79 1.9 NNW 43 61 23 33 1006.3 - 0.6
30/11:00pm 14.0 6.2 11.0 82 1.6 N 43 56 23 30 1006.5 - 0.6
30/10:30pm 13.8 6.4 11.3 85 1.3 NNW 41 52 22 28 1007.2 1007.2 0.6
30/10:00pm 13.6 7.4 11.5 87 1.1 NNW 35 44 19 24 1007.9 - 0.6
30/09:30pm 13.8 7.2 11.3 85 1.3 NNW 37 44 20 24 1008.4 1008.4 0.6
30/09:00pm 13.5 7.7 11.6 88 1.0 NNW 33 44 18 24 1008.7 1008.7 0.6
30/08:30pm 13.8 7.0 11.8 88 1.1 NNW 39 50 21 27 1009.3 1009.3 0.6
30/08:00pm 13.9 8.2 11.8 87 1.1 NNW 33 48 18 26 1009.6 - 0.6
30/07:30pm 13.7 8.2 11.8 88 1.0 NNW 32 46 17 25 1009.7 1009.7 0.6
30/07:00pm 13.9 7.8 11.8 87 1.1 NNW 35 48 19 26 1010.0 - 0.4
30/06:30pm 13.8 8.6 11.7 87 1.1 NNW 30 39 16 21 1010.2 1010.2 0.4
30/06:00pm 14.0 8.2 11.5 85 1.3 NNW 33 46 18 25 1010.1 1010.1 0.4
30/05:30pm 13.6 8.3 11.1 85 1.3 NNW 30 41 16 22 1010.0 1010.0 0.2
30/05:00pm 13.7 9.7 11.8 88 1.0 NW 24 33 13 18 1010.1 - 0.2
30/04:30pm 13.8 8.8 11.1 84 1.4 NNW 28 39 15 21 1010.1 1010.1 0.0
30/04:15pm 14.6 9.0 10.0 74 2.4 NNW 30 48 16 26 1010.1 - 0.0
30/04:00pm 14.8 10.1 10.8 77 2.1 NW 26 35 14 19 1010.2 - 0.0
30/03:30pm 15.2 10.2 11.0 76 2.2 NW 28 35 15 19 1010.4 1010.4 0.0
30/03:00pm 15.4 10.0 11.0 75 2.3 NW 30 41 16 22 1010.6 1010.6 0.0
30/02:30pm 15.8 10.1 11.2 74 2.5 NW 32 41 17 22 1010.6 1010.6 0.0
30/02:00pm 15.6 10.2 10.8 73 2.6 NW 30 43 16 23 1010.9 - 0.0
30/01:30pm 14.8 9.6 11.6 81 1.7 NW 30 43 16 23 1011.2 1011.2 0.0
30/01:00pm 14.7 10.3 11.8 83 1.6 NNW 26 33 14 18 1011.6 - 0.0
30/12:30pm 16.0 11.7 12.2 78 2.1 NW 26 35 14 19 1012.0 1012.0 0.0
30/12:00pm 16.4 11.6 11.6 73 2.6 NW 28 43 15 23 1012.5 1012.5 0.0
30/11:30am 15.3 10.7 12.2 82 1.7 NW 28 39 15 21 1013.0 1013.0 0.0
30/11:00am 15.9 10.3 12.1 78 2.1 NW 33 44 18 24 1013.0 - 0.0
30/10:30am 15.8 11.3 12.5 81 1.8 NW 28 39 15 21 1013.2 1013.2 0.0
30/10:00am 15.4 10.8 12.2 81 1.7 WNW 28 43 15 23 1013.2 - 0.0
30/09:30am 14.4 9.2 11.7 84 1.4 NW 30 39 16 21 1013.5 1013.5 0.0
30/09:00am 14.0 9.2 11.7 86 1.2 NW 28 37 15 20 1013.5 1013.5 7.6
30/08:30am 14.1 8.9 11.6 85 1.3 NW 30 39 16 21 1013.2 1013.2 7.4
30/08:00am 13.6 8.8 11.8 89 1.0 WNW 28 39 15 21 1013.2 - 7.4
30/07:30am 13.7 9.7 11.9 89 1.0 WNW 24 39 13 21 1012.9 1012.9 7.2
30/07:00am 13.4 8.3 11.8 90 0.9 WNW 30 39 16 21 1012.9 - 6.8
30/06:45am 13.3 8.5 11.7 90 0.9 WNW 28 46 15 25 1012.7 - 6.8
30/06:30am 13.4 10.4 12.0 91 0.8 WNW 19 26 10 14 1012.7 1012.7 6.2
30/06:00am 13.5 10.2 11.6 88 1.0 WNW 20 28 11 15 1012.5 1012.5 6.0
30/05:30am 13.3 10.0 11.7 90 0.9 NW 20 30 11 16 1012.4 1012.4 6.0
30/05:00am 13.5 10.3 11.9 90 0.9 WNW 20 30 11 16 1012.5 - 6.0
30/04:30am 12.9 9.8 11.6 92 0.7 WNW 19 28 10 15 1012.6 1012.6 6.0
30/04:00am 13.5 10.3 11.4 87 1.1 WNW 19 26 10 14 1012.5 - 4.2
30/03:30am 13.2 9.4 11.1 87 1.1 NW 22 30 12 16 1012.7 1012.7 4.2
30/03:00am 12.7 8.8 10.8 88 1.0 WNW 22 28 12 15 1012.9 1012.9 4.2
30/02:30am 13.4 8.8 10.9 85 1.3 WNW 26 39 14 21 1013.0 1013.0 4.2
30/02:00am 13.9 10.2 11.4 85 1.3 WNW 22 32 12 17 1013.3 - 4.2
30/01:30am 13.9 10.7 11.4 85 1.3 WNW 19 32 10 17 1013.5 1013.5 4.2
30/01:00am 13.9 8.9 10.9 82 1.6 W 28 35 15 19 1013.7 - 4.2
30/12:30am 14.1 10.0 11.6 85 1.3 WNW 24 32 13 17 1013.6 1013.6 4.2
30/12:00am 13.9 9.3 11.2 84 1.4 W 26 33 14 18 1013.6 1013.6 4.2
 
Date/Time
CST
Temp
°C
App
Temp
°C
Dew
Point
Rel
Hum
%
Delta-T
°C
Wind Press
QNH
hPa
Press
MSL
hPa
Rain
since 9 am
mm
Dir
 
Spd
km/h
Gust
km/h
Spd
kts
Gust
kts
29/11:30pm 14.1 9.2 11.4 84 1.4 W 28 35 15 19 1013.7 1013.7 4.2
29/11:00pm 14.3 9.5 11.6 84 1.4 W 28 37 15 20 1013.6 - 4.2
29/10:30pm 14.2 9.4 11.7 85 1.3 WNW 28 37 15 20 1013.4 1013.4 4.2
29/10:00pm 14.1 9.3 11.8 86 1.2 WNW 28 35 15 19 1013.2 - 4.2
29/09:30pm 14.1 10.2 12.0 87 1.1 WNW 24 32 13 17 1013.2 1013.2 4.2
29/09:00pm 14.1 8.9 11.6 85 1.3 WNW 30 41 16 22 1012.9 1012.9 4.2
29/08:30pm 13.9 10.0 12.1 89 1.0 WNW 24 32 13 17 1012.9 1012.9 4.2
29/08:00pm 14.1 9.3 11.8 86 1.2 WNW 28 37 15 20 1012.7 - 4.0
29/07:30pm 13.9 9.4 11.4 85 1.3 WNW 26 33 14 18 1012.4 1012.4 4.0
29/07:00pm 13.2 7.9 11.4 89 1.0 W 30 39 16 21 1012.2 - 4.0
29/06:30pm 14.1 8.0 11.8 86 1.2 WNW 35 54 19 29 1012.0 1012.0 3.8
29/06:29pm 14.3 8.6 11.8 85 1.3 WNW 33 54 18 29 1011.9 - 3.6
29/06:00pm 14.8 10.4 11.8 82 1.6 WNW 26 44 14 24 1011.6 1011.6 3.6
29/05:30pm 15.0 9.2 11.4 79 1.9 WNW 33 44 18 24 1011.4 1011.4 3.6
29/05:00pm 14.9 9.3 11.5 80 1.8 WNW 32 43 17 23 1011.2 - 3.6
29/04:30pm 15.0 9.9 11.8 81 1.7 WNW 30 41 16 22 1010.8 1010.8 3.6
29/04:00pm 15.3 10.6 12.1 81 1.7 WNW 28 39 15 21 1010.5 - 3.6
29/03:30pm 14.9 9.3 11.5 80 1.8 WNW 32 43 17 23 1010.3 1010.3 3.6
29/03:00pm 15.1 9.0 11.9 81 1.7 WNW 35 50 19 27 1010.3 1010.3 3.6
29/02:30pm 15.1 10.2 12.4 84 1.5 WNW 30 43 16 23 1010.0 1010.0 3.6
29/02:00pm 15.2 10.2 12.3 83 1.6 WNW 30 43 16 23 1009.7 - 3.6
29/01:30pm 14.4 8.1 12.3 87 1.1 WNW 37 52 20 28 1009.7 1009.7 3.6
29/01:00pm 14.3 8.7 12.2 87 1.1 NW 33 48 18 26 1009.9 - 2.8
29/12:30pm 14.5 8.3 12.5 88 1.1 WNW 37 54 20 29 1009.9 1009.9 2.6
29/12:00pm 15.0 10.9 12.7 86 1.3 WNW 26 39 14 21 1010.2 1010.2 2.4
29/11:30am 14.1 8.9 12.8 92 0.7 WNW 32 43 17 23 1010.5 1010.5 2.4
29/11:00am 14.8 9.3 12.5 86 1.3 NW 33 46 18 25 1010.3 - 0.6
29/10:30am 14.0 9.1 12.4 90 0.9 WNW 30 46 16 25 1010.5 1010.5 0.6
29/10:00am 14.7 9.4 12.4 86 1.3 NW 32 46 17 25 1010.3 - 0.0
29/09:30am 14.4 10.2 12.3 87 1.1 NW 26 35 14 19 1010.3 1010.3 0.0
29/09:00am 14.1 9.0 12.0 87 1.1 NW 30 43 16 23 1010.1 1010.1 2.8
29/08:30am 14.1 8.4 11.8 86 1.2 NW 33 46 18 25 1009.7 1009.7 2.8
29/08:00am 13.6 8.5 12.0 90 0.9 NNW 30 43 16 23 1009.8 - 2.8
29/07:30am 13.7 8.2 11.9 89 1.0 NW 32 41 17 22 1009.6 1009.6 2.8
29/07:00am 13.5 7.8 11.9 90 0.9 NW 33 44 18 24 1009.7 - 2.8
29/06:39am 13.5 8.8 11.9 90 0.9 NW 28 57 15 31 1009.3 - 2.6
29/06:30am 13.4 7.9 11.8 90 0.9 NNW 32 43 17 23 1009.6 1009.6 1.2
29/06:00am 13.6 8.6 11.1 85 1.3 NW 28 37 15 20 1009.3 1009.3 1.0
29/05:55am 13.6 8.2 11.0 84 1.4 NW 30 48 16 26 1009.3 - 1.0
29/05:30am 13.3 8.4 11.4 88 1.0 NW 28 41 15 22 1009.2 1009.2 1.0
29/05:00am 13.6 8.1 11.8 89 1.0 NW 32 44 17 24 1009.2 - 1.0
29/04:30am 13.7 7.5 11.4 86 1.2 NW 35 48 19 26 1009.2 1009.2 0.2
29/04:00am 13.6 7.4 11.3 86 1.2 NW 35 46 19 25 1009.1 - 0.2
29/03:30am 13.7 7.1 11.2 85 1.3 NW 37 50 20 27 1009.0 1009.0 0.2
29/03:00am 13.8 7.1 11.1 84 1.4 NW 37 50 20 27 1009.3 1009.3 0.2
29/02:35am 13.9 7.6 11.2 84 1.4 NW 35 54 19 29 1009.4 - 0.2
29/02:30am 13.7 7.8 11.0 84 1.4 NW 33 48 18 26 1009.4 1009.4 0.2
29/02:00am 13.6 7.7 11.0 84 1.4 NW 33 44 18 24 1009.5 - 0.2
29/01:30am 13.9 7.2 11.1 83 1.5 NW 37 52 20 28 1009.8 1009.8 0.2
29/01:00am 13.7 7.4 11.0 84 1.4 NW 35 48 19 26 1010.1 - 0.2
29/12:30am 13.9 7.2 10.9 82 1.6 NW 37 50 20 27 1010.4 1010.4 0.2
29/12:00am 13.8 7.5 11.0 83 1.5 NNW 35 46 19 25 1010.7 1010.7 0.2
 
Date/Time
CST
Temp
°C
App
Temp
°C
Dew
Point
Rel
Hum
%
Delta-T
°C
Wind Press
QNH
hPa
Press
MSL
hPa
Rain
since 9 am
mm
Dir
 
Spd
km/h
Gust
km/h
Spd
kts
Gust
kts
28/11:30pm 13.9 7.6 10.9 82 1.6 NNW 35 50 19 27 1011.1 1011.1 0.2
28/11:00pm 13.6 7.8 10.8 83 1.5 NNW 32 46 17 25 1011.4 - 0.2
28/10:30pm 13.9 7.9 10.7 81 1.7 NW 33 44 18 24 1011.8 1011.8 0.2
28/10:00pm 13.8 7.4 10.6 81 1.7 NW 35 48 19 26 1012.0 - 0.2
28/09:30pm 13.7 7.4 10.9 83 1.5 NNW 35 46 19 25 1011.8 1011.8 0.2
28/09:00pm 13.7 7.7 10.9 83 1.5 NNW 33 43 18 23 1012.2 1012.2 0.2
28/08:30pm 13.7 8.0 11.0 84 1.4 NNW 32 41 17 22 1012.4 1012.4 0.0
28/08:00pm 13.2 8.6 11.1 87 1.1 NNW 26 33 14 18 1012.4 - 0.0
28/07:30pm 13.2 8.2 10.9 86 1.2 NNW 28 37 15 20 1012.4 1012.4 0.0
28/07:00pm 13.4 7.4 10.9 85 1.3 NNW 33 41 18 22 1012.3 - 0.0
28/06:30pm 13.3 7.8 10.7 84 1.4 NNW 30 37 16 20 1012.2 1012.2 0.0
28/06:00pm 13.5 7.7 10.9 84 1.4 NNW 32 39 17 21 1012.0 1012.0 0.0
28/05:30pm 13.4 8.0 10.8 84 1.4 NNW 30 39 16 21 1012.2 1012.2 0.0
28/05:00pm 13.7 8.0 11.0 84 1.4 NNW 32 43 17 23 1012.2 - 0.0
28/04:30pm 13.3 9.2 11.4 88 1.0 NNW 24 33 13 18 1012.3 1012.3 0.0
28/04:00pm 13.9 9.1 11.6 86 1.2 NNW 28 35 15 19 1012.1 - 0.0
28/03:30pm 14.1 8.9 11.6 85 1.3 NNW 30 35 16 19 1012.0 1012.0 0.0
28/03:00pm 14.5 10.2 12.2 86 1.2 N 26 35 14 19 1012.0 1012.0 0.0
28/02:30pm 14.6 10.0 12.3 86 1.3 N 28 33 15 18 1012.4 1012.4 0.0
28/02:00pm 15.0 10.2 11.6 80 1.8 NNW 28 37 15 20 1012.8 - 0.0
28/01:30pm 15.2 10.4 11.8 80 1.8 NNW 28 37 15 20 1013.2 1013.2 0.0
28/01:00pm 15.3 10.3 12.1 81 1.7 NNW 30 37 16 20 1013.6 - 0.0
28/12:30pm 15.4 10.2 11.6 78 2.0 NNW 30 41 16 22 1014.0 1014.0 0.0
28/12:00pm 15.3 10.0 11.3 77 2.1 NW 30 39 16 21 1014.4 1014.4 0.0
28/11:30am 15.3 10.5 11.7 79 1.9 NNW 28 37 15 20 1014.6 1014.6 0.0
28/11:00am 15.4 11.0 11.6 78 2.0 NW 26 33 14 18 1015.1 - 0.0
28/10:30am 15.3 11.7 11.7 79 1.9 NNW 22 28 12 15 1015.2 1015.2 0.0
28/10:00am 14.9 11.3 11.7 81 1.7 NNW 22 30 12 16 1015.2 - 0.0
28/09:30am 14.6 10.6 11.7 83 1.6 NNW 24 30 13 16 1015.3 1015.3 0.0
28/09:00am 14.1 10.9 12.0 87 1.1 NNW 20 28 11 15 1015.2 1015.2 0.0

Other Formats:

Comma delimited format used in spreadsheet applications
http://www.bom.gov.au/fwo/IDS60801/IDS60801.94813.axf

JavaScript Object Notation format (JSON) in row-major order
http://www.bom.gov.au/fwo/IDS60801/IDS60801.94813.json